sensor_id;sensor_type;location;lat;lon;timestamp;P1;durP1;ratioP1;P2;durP2;ratioP2
6757;SDS011;3416;53.074;8.822;2024-02-26T00:00:02;14.23;;;12.63;;
6757;SDS011;3416;53.074;8.822;2024-02-26T00:02:35;14.70;;;13.05;;
6757;SDS011;3416;53.074;8.822;2024-02-26T00:05:04;16.00;;;13.60;;
6757;SDS011;3416;53.074;8.822;2024-02-26T00:07:31;18.40;;;14.15;;
6757;SDS011;3416;53.074;8.822;2024-02-26T00:09:58;15.23;;;12.82;;
6757;SDS011;3416;53.074;8.822;2024-02-26T00:12:25;18.10;;;14.27;;
6757;SDS011;3416;53.074;8.822;2024-02-26T00:14:53;18.75;;;13.10;;
6757;SDS011;3416;53.074;8.822;2024-02-26T00:17:23;15.93;;;14.23;;
6757;SDS011;3416;53.074;8.822;2024-02-26T00:19:52;16.10;;;12.48;;
6757;SDS011;3416;53.074;8.822;2024-02-26T00:22:19;18.27;;;14.43;;
6757;SDS011;3416;53.074;8.822;2024-02-26T00:24:47;14.90;;;12.15;;
6757;SDS011;3416;53.074;8.822;2024-02-26T00:27:14;15.80;;;12.98;;
6757;SDS011;3416;53.074;8.822;2024-02-26T00:29:41;17.67;;;13.93;;
6757;SDS011;3416;53.074;8.822;2024-02-26T00:32:08;19.70;;;14.57;;
6757;SDS011;3416;53.074;8.822;2024-02-26T00:34:35;17.25;;;14.45;;
6757;SDS011;3416;53.074;8.822;2024-02-26T00:37:03;16.92;;;14.30;;
6757;SDS011;3416;53.074;8.822;2024-02-26T00:39:31;16.42;;;13.70;;
6757;SDS011;3416;53.074;8.822;2024-02-26T00:41:58;14.85;;;13.05;;
6757;SDS011;3416;53.074;8.822;2024-02-26T00:44:25;17.73;;;14.55;;
6757;SDS011;3416;53.074;8.822;2024-02-26T00:46:52;16.38;;;13.70;;
6757;SDS011;3416;53.074;8.822;2024-02-26T00:49:19;16.65;;;12.45;;
6757;SDS011;3416;53.074;8.822;2024-02-26T00:51:46;19.70;;;14.85;;
6757;SDS011;3416;53.074;8.822;2024-02-26T00:54:14;15.27;;;12.15;;
6757;SDS011;3416;53.074;8.822;2024-02-26T00:56:41;14.68;;;11.57;;
6757;SDS011;3416;53.074;8.822;2024-02-26T00:59:08;17.02;;;14.07;;
6757;SDS011;3416;53.074;8.822;2024-02-26T01:01:35;15.95;;;13.52;;
6757;SDS011;3416;53.074;8.822;2024-02-26T01:04:02;13.95;;;11.60;;
6757;SDS011;3416;53.074;8.822;2024-02-26T01:06:29;14.27;;;12.20;;
6757;SDS011;3416;53.074;8.822;2024-02-26T01:08:56;16.02;;;12.45;;
6757;SDS011;3416;53.074;8.822;2024-02-26T01:11:25;17.30;;;14.52;;
6757;SDS011;3416;53.074;8.822;2024-02-26T01:13:52;17.25;;;15.00;;
6757;SDS011;3416;53.074;8.822;2024-02-26T01:16:21;16.77;;;12.98;;
6757;SDS011;3416;53.074;8.822;2024-02-26T01:18:49;16.65;;;12.82;;
6757;SDS011;3416;53.074;8.822;2024-02-26T01:21:16;18.20;;;14.90;;
6757;SDS011;3416;53.074;8.822;2024-02-26T01:23:43;15.15;;;13.02;;
6757;SDS011;3416;53.074;8.822;2024-02-26T01:26:10;15.00;;;12.85;;
6757;SDS011;3416;53.074;8.822;2024-02-26T01:28:38;17.67;;;14.63;;
6757;SDS011;3416;53.074;8.822;2024-02-26T01:31:04;16.13;;;14.40;;
6757;SDS011;3416;53.074;8.822;2024-02-26T01:33:33;17.60;;;15.05;;
6757;SDS011;3416;53.074;8.822;2024-02-26T01:36:00;16.45;;;13.43;;
6757;SDS011;3416;53.074;8.822;2024-02-26T01:38:26;17.93;;;14.47;;
6757;SDS011;3416;53.074;8.822;2024-02-26T01:40:56;21.33;;;16.15;;
6757;SDS011;3416;53.074;8.822;2024-02-26T01:43:23;18.52;;;13.20;;
6757;SDS011;3416;53.074;8.822;2024-02-26T01:45:52;20.77;;;17.70;;
6757;SDS011;3416;53.074;8.822;2024-02-26T01:48:19;14.93;;;13.18;;
6757;SDS011;3416;53.074;8.822;2024-02-26T01:50:46;15.07;;;12.85;;
6757;SDS011;3416;53.074;8.822;2024-02-26T01:53:13;18.58;;;14.48;;
6757;SDS011;3416;53.074;8.822;2024-02-26T01:55:41;15.57;;;11.95;;
6757;SDS011;3416;53.074;8.822;2024-02-26T01:58:08;16.10;;;13.38;;
6757;SDS011;3416;53.074;8.822;2024-02-26T02:00:36;20.92;;;14.85;;
6757;SDS011;3416;53.074;8.822;2024-02-26T02:03:05;14.77;;;12.68;;
6757;SDS011;3416;53.074;8.822;2024-02-26T02:05:32;17.58;;;15.00;;
6757;SDS011;3416;53.074;8.822;2024-02-26T02:08:03;13.13;;;10.27;;
6757;SDS011;3416;53.074;8.822;2024-02-26T02:10:31;13.93;;;12.10;;
6757;SDS011;3416;53.074;8.822;2024-02-26T02:12:58;14.93;;;11.95;;
6757;SDS011;3416;53.074;8.822;2024-02-26T02:15:25;13.73;;;11.43;;
6757;SDS011;3416;53.074;8.822;2024-02-26T02:17:52;16.90;;;13.38;;
6757;SDS011;3416;53.074;8.822;2024-02-26T02:22:58;16.73;;;13.50;;
6757;SDS011;3416;53.074;8.822;2024-02-26T02:25:26;18.30;;;14.55;;
6757;SDS011;3416;53.074;8.822;2024-02-26T02:27:53;13.80;;;11.15;;
6757;SDS011;3416;53.074;8.822;2024-02-26T02:30:20;19.30;;;14.77;;
6757;SDS011;3416;53.074;8.822;2024-02-26T02:32:49;15.90;;;13.55;;
6757;SDS011;3416;53.074;8.822;2024-02-26T02:35:17;16.13;;;13.20;;
6757;SDS011;3416;53.074;8.822;2024-02-26T02:37:45;15.35;;;12.30;;
6757;SDS011;3416;53.074;8.822;2024-02-26T02:40:12;15.52;;;12.02;;
6757;SDS011;3416;53.074;8.822;2024-02-26T02:42:39;17.13;;;13.18;;
6757;SDS011;3416;53.074;8.822;2024-02-26T02:45:06;19.75;;;13.88;;
6757;SDS011;3416;53.074;8.822;2024-02-26T02:47:35;18.52;;;13.02;;
6757;SDS011;3416;53.074;8.822;2024-02-26T02:50:03;18.80;;;13.57;;
6757;SDS011;3416;53.074;8.822;2024-02-26T02:52:30;14.95;;;13.00;;
6757;SDS011;3416;53.074;8.822;2024-02-26T02:54:59;17.48;;;12.30;;
6757;SDS011;3416;53.074;8.822;2024-02-26T02:57:26;19.60;;;12.93;;
6757;SDS011;3416;53.074;8.822;2024-02-26T02:59:53;15.77;;;12.82;;
6757;SDS011;3416;53.074;8.822;2024-02-26T03:02:20;18.88;;;14.73;;
6757;SDS011;3416;53.074;8.822;2024-02-26T03:04:47;13.38;;;11.70;;
6757;SDS011;3416;53.074;8.822;2024-02-26T03:07:14;15.50;;;12.75;;
6757;SDS011;3416;53.074;8.822;2024-02-26T03:09:41;15.15;;;12.90;;
6757;SDS011;3416;53.074;8.822;2024-02-26T03:12:09;14.55;;;11.55;;
6757;SDS011;3416;53.074;8.822;2024-02-26T03:14:36;17.83;;;13.18;;
6757;SDS011;3416;53.074;8.822;2024-02-26T03:17:05;17.13;;;12.40;;
6757;SDS011;3416;53.074;8.822;2024-02-26T03:19:32;15.82;;;12.45;;
6757;SDS011;3416;53.074;8.822;2024-02-26T03:21:59;16.10;;;13.55;;
6757;SDS011;3416;53.074;8.822;2024-02-26T03:24:26;18.58;;;13.05;;
6757;SDS011;3416;53.074;8.822;2024-02-26T03:26:52;15.55;;;12.52;;
6757;SDS011;3416;53.074;8.822;2024-02-26T03:29:21;14.93;;;13.25;;
6757;SDS011;3416;53.074;8.822;2024-02-26T03:31:48;13.77;;;11.35;;
6757;SDS011;3416;53.074;8.822;2024-02-26T03:34:15;18.92;;;13.90;;
6757;SDS011;3416;53.074;8.822;2024-02-26T03:36:43;17.45;;;13.80;;
6757;SDS011;3416;53.074;8.822;2024-02-26T03:39:10;19.70;;;14.48;;
6757;SDS011;3416;53.074;8.822;2024-02-26T03:41:38;18.75;;;14.27;;
6757;SDS011;3416;53.074;8.822;2024-02-26T03:44:07;20.25;;;15.90;;
6757;SDS011;3416;53.074;8.822;2024-02-26T03:46:35;22.98;;;15.75;;
6757;SDS011;3416;53.074;8.822;2024-02-26T03:49:02;20.95;;;15.45;;
6757;SDS011;3416;53.074;8.822;2024-02-26T03:51:29;19.20;;;13.77;;
6757;SDS011;3416;53.074;8.822;2024-02-26T03:53:58;19.67;;;14.80;;
6757;SDS011;3416;53.074;8.822;2024-02-26T03:56:25;15.85;;;12.85;;
6757;SDS011;3416;53.074;8.822;2024-02-26T03:58:52;16.30;;;13.57;;
6757;SDS011;3416;53.074;8.822;2024-02-26T04:01:19;17.52;;;14.07;;
6757;SDS011;3416;53.074;8.822;2024-02-26T04:03:48;20.80;;;15.00;;
6757;SDS011;3416;53.074;8.822;2024-02-26T04:06:15;20.83;;;15.35;;
6757;SDS011;3416;53.074;8.822;2024-02-26T04:08:43;16.88;;;13.38;;
6757;SDS011;3416;53.074;8.822;2024-02-26T04:11:10;21.60;;;15.82;;
6757;SDS011;3416;53.074;8.822;2024-02-26T04:13:37;19.52;;;14.02;;
6757;SDS011;3416;53.074;8.822;2024-02-26T04:16:04;17.25;;;12.60;;
6757;SDS011;3416;53.074;8.822;2024-02-26T04:18:32;15.23;;;12.07;;
6757;SDS011;3416;53.074;8.822;2024-02-26T04:21:00;16.30;;;13.02;;
6757;SDS011;3416;53.074;8.822;2024-02-26T04:23:27;17.50;;;13.73;;
6757;SDS011;3416;53.074;8.822;2024-02-26T04:25:54;19.42;;;14.68;;
6757;SDS011;3416;53.074;8.822;2024-02-26T04:28:21;18.05;;;14.85;;
6757;SDS011;3416;53.074;8.822;2024-02-26T04:30:50;14.90;;;12.68;;
6757;SDS011;3416;53.074;8.822;2024-02-26T04:33:17;19.25;;;15.10;;
6757;SDS011;3416;53.074;8.822;2024-02-26T04:35:44;16.55;;;13.02;;
6757;SDS011;3416;53.074;8.822;2024-02-26T04:38:13;15.27;;;12.50;;
6757;SDS011;3416;53.074;8.822;2024-02-26T04:40:40;20.58;;;16.65;;
6757;SDS011;3416;53.074;8.822;2024-02-26T04:43:07;20.67;;;16.05;;
6757;SDS011;3416;53.074;8.822;2024-02-26T04:45:34;17.25;;;13.38;;
6757;SDS011;3416;53.074;8.822;2024-02-26T04:48:01;17.63;;;13.07;;
6757;SDS011;3416;53.074;8.822;2024-02-26T04:50:28;19.45;;;14.73;;
6757;SDS011;3416;53.074;8.822;2024-02-26T04:52:56;19.73;;;13.95;;
6757;SDS011;3416;53.074;8.822;2024-02-26T04:55:24;15.73;;;11.82;;
6757;SDS011;3416;53.074;8.822;2024-02-26T04:57:52;18.25;;;15.15;;
6757;SDS011;3416;53.074;8.822;2024-02-26T05:00:19;15.90;;;12.48;;
6757;SDS011;3416;53.074;8.822;2024-02-26T05:02:46;17.25;;;13.10;;
6757;SDS011;3416;53.074;8.822;2024-02-26T05:05:13;15.20;;;12.15;;
6757;SDS011;3416;53.074;8.822;2024-02-26T05:07:40;19.90;;;13.77;;
6757;SDS011;3416;53.074;8.822;2024-02-26T05:10:10;18.15;;;13.20;;
6757;SDS011;3416;53.074;8.822;2024-02-26T05:12:39;17.52;;;14.07;;
6757;SDS011;3416;53.074;8.822;2024-02-26T05:15:08;18.95;;;13.98;;
6757;SDS011;3416;53.074;8.822;2024-02-26T05:17:35;16.73;;;12.68;;
6757;SDS011;3416;53.074;8.822;2024-02-26T05:20:05;18.15;;;12.82;;
6757;SDS011;3416;53.074;8.822;2024-02-26T05:22:33;17.55;;;13.05;;
6757;SDS011;3416;53.074;8.822;2024-02-26T05:25:01;17.50;;;12.77;;
6757;SDS011;3416;53.074;8.822;2024-02-26T05:27:29;17.83;;;13.57;;
6757;SDS011;3416;53.074;8.822;2024-02-26T05:29:57;14.70;;;11.57;;
6757;SDS011;3416;53.074;8.822;2024-02-26T05:32:24;16.35;;;11.57;;
6757;SDS011;3416;53.074;8.822;2024-02-26T05:34:51;18.90;;;13.35;;
6757;SDS011;3416;53.074;8.822;2024-02-26T05:37:18;18.08;;;14.15;;
6757;SDS011;3416;53.074;8.822;2024-02-26T05:39:45;15.82;;;12.65;;
6757;SDS011;3416;53.074;8.822;2024-02-26T05:42:12;18.33;;;12.48;;
6757;SDS011;3416;53.074;8.822;2024-02-26T05:44:39;17.38;;;13.15;;
6757;SDS011;3416;53.074;8.822;2024-02-26T05:47:07;17.98;;;14.88;;
6757;SDS011;3416;53.074;8.822;2024-02-26T05:49:36;17.33;;;12.55;;
6757;SDS011;3416;53.074;8.822;2024-02-26T05:52:03;20.25;;;13.88;;
6757;SDS011;3416;53.074;8.822;2024-02-26T05:54:30;17.70;;;12.82;;
6757;SDS011;3416;53.074;8.822;2024-02-26T05:56:57;20.30;;;14.48;;
6757;SDS011;3416;53.074;8.822;2024-02-26T05:59:24;22.98;;;16.17;;
6757;SDS011;3416;53.074;8.822;2024-02-26T06:01:51;20.00;;;15.27;;
6757;SDS011;3416;53.074;8.822;2024-02-26T06:04:19;23.92;;;17.55;;
6757;SDS011;3416;53.074;8.822;2024-02-26T06:06:47;24.75;;;16.30;;
6757;SDS011;3416;53.074;8.822;2024-02-26T06:09:14;23.02;;;15.55;;
6757;SDS011;3416;53.074;8.822;2024-02-26T06:11:41;25.00;;;16.92;;
6757;SDS011;3416;53.074;8.822;2024-02-26T06:14:08;22.27;;;15.52;;
6757;SDS011;3416;53.074;8.822;2024-02-26T06:16:36;22.00;;;17.92;;
6757;SDS011;3416;53.074;8.822;2024-02-26T06:19:03;26.70;;;17.13;;
6757;SDS011;3416;53.074;8.822;2024-02-26T06:21:41;26.55;;;17.88;;
6757;SDS011;3416;53.074;8.822;2024-02-26T06:24:08;31.85;;;21.00;;
6757;SDS011;3416;53.074;8.822;2024-02-26T06:26:35;32.53;;;21.63;;
6757;SDS011;3416;53.074;8.822;2024-02-26T06:29:02;28.40;;;18.67;;
6757;SDS011;3416;53.074;8.822;2024-02-26T06:31:29;33.72;;;19.80;;
6757;SDS011;3416;53.074;8.822;2024-02-26T06:33:56;32.22;;;20.38;;
6757;SDS011;3416;53.074;8.822;2024-02-26T06:36:23;36.50;;;22.38;;
6757;SDS011;3416;53.074;8.822;2024-02-26T06:38:52;28.77;;;20.98;;
6757;SDS011;3416;53.074;8.822;2024-02-26T06:41:20;37.78;;;23.75;;
6757;SDS011;3416;53.074;8.822;2024-02-26T06:43:52;34.90;;;20.88;;
6757;SDS011;3416;53.074;8.822;2024-02-26T06:46:19;36.10;;;23.50;;
6757;SDS011;3416;53.074;8.822;2024-02-26T06:48:47;32.70;;;22.83;;
6757;SDS011;3416;53.074;8.822;2024-02-26T06:51:14;32.10;;;20.45;;
6757;SDS011;3416;53.074;8.822;2024-02-26T06:53:41;36.63;;;23.52;;
6757;SDS011;3416;53.074;8.822;2024-02-26T06:56:10;33.38;;;19.23;;
6757;SDS011;3416;53.074;8.822;2024-02-26T06:58:37;37.33;;;24.55;;
6757;SDS011;3416;53.074;8.822;2024-02-26T07:01:04;34.20;;;21.80;;
6757;SDS011;3416;53.074;8.822;2024-02-26T07:03:33;33.38;;;21.88;;
6757;SDS011;3416;53.074;8.822;2024-02-26T07:06:00;32.00;;;21.10;;
6757;SDS011;3416;53.074;8.822;2024-02-26T07:08:28;28.50;;;18.20;;
6757;SDS011;3416;53.074;8.822;2024-02-26T07:10:54;30.23;;;18.63;;
6757;SDS011;3416;53.074;8.822;2024-02-26T07:13:23;31.75;;;19.13;;
6757;SDS011;3416;53.074;8.822;2024-02-26T07:15:50;50.45;;;24.95;;
6757;SDS011;3416;53.074;8.822;2024-02-26T07:18:16;32.63;;;20.75;;
6757;SDS011;3416;53.074;8.822;2024-02-26T07:20:44;30.98;;;21.67;;
6757;SDS011;3416;53.074;8.822;2024-02-26T07:23:11;34.05;;;23.05;;
6757;SDS011;3416;53.074;8.822;2024-02-26T07:25:38;36.67;;;23.13;;
6757;SDS011;3416;53.074;8.822;2024-02-26T07:28:05;28.50;;;19.88;;
6757;SDS011;3416;53.074;8.822;2024-02-26T07:30:33;31.58;;;20.60;;
6757;SDS011;3416;53.074;8.822;2024-02-26T07:33:00;33.63;;;20.85;;
6757;SDS011;3416;53.074;8.822;2024-02-26T07:35:27;42.45;;;25.17;;
6757;SDS011;3416;53.074;8.822;2024-02-26T07:37:54;31.75;;;21.95;;
6757;SDS011;3416;53.074;8.822;2024-02-26T07:40:22;36.25;;;23.67;;
6757;SDS011;3416;53.074;8.822;2024-02-26T07:42:49;35.88;;;22.27;;
6757;SDS011;3416;53.074;8.822;2024-02-26T07:45:16;34.80;;;21.70;;
6757;SDS011;3416;53.074;8.822;2024-02-26T07:47:46;33.22;;;21.90;;
6757;SDS011;3416;53.074;8.822;2024-02-26T07:50:13;37.33;;;25.08;;
6757;SDS011;3416;53.074;8.822;2024-02-26T07:52:40;33.35;;;21.50;;
6757;SDS011;3416;53.074;8.822;2024-02-26T07:55:07;33.08;;;21.05;;
6757;SDS011;3416;53.074;8.822;2024-02-26T07:57:34;30.73;;;21.17;;
6757;SDS011;3416;53.074;8.822;2024-02-26T08:00:02;37.17;;;23.92;;
6757;SDS011;3416;53.074;8.822;2024-02-26T08:02:32;35.53;;;23.95;;
6757;SDS011;3416;53.074;8.822;2024-02-26T08:05:01;42.42;;;24.55;;
6757;SDS011;3416;53.074;8.822;2024-02-26T08:07:28;30.80;;;19.85;;
6757;SDS011;3416;53.074;8.822;2024-02-26T08:09:55;33.80;;;20.60;;
6757;SDS011;3416;53.074;8.822;2024-02-26T08:12:22;31.45;;;20.65;;
6757;SDS011;3416;53.074;8.822;2024-02-26T08:14:49;35.70;;;21.77;;
6757;SDS011;3416;53.074;8.822;2024-02-26T08:17:16;28.30;;;19.83;;
6757;SDS011;3416;53.074;8.822;2024-02-26T08:19:43;39.42;;;25.30;;
6757;SDS011;3416;53.074;8.822;2024-02-26T08:22:11;33.72;;;20.75;;
6757;SDS011;3416;53.074;8.822;2024-02-26T08:24:41;35.35;;;23.42;;
6757;SDS011;3416;53.074;8.822;2024-02-26T08:27:08;36.60;;;21.45;;
6757;SDS011;3416;53.074;8.822;2024-02-26T08:29:35;33.90;;;20.90;;
6757;SDS011;3416;53.074;8.822;2024-02-26T08:32:02;33.60;;;22.23;;
6757;SDS011;3416;53.074;8.822;2024-02-26T08:34:30;37.58;;;22.50;;
6757;SDS011;3416;53.074;8.822;2024-02-26T08:36:57;27.10;;;19.85;;
6757;SDS011;3416;53.074;8.822;2024-02-26T08:39:26;31.00;;;19.73;;
6757;SDS011;3416;53.074;8.822;2024-02-26T08:41:53;31.33;;;20.67;;
6757;SDS011;3416;53.074;8.822;2024-02-26T08:44:20;33.35;;;22.70;;
6757;SDS011;3416;53.074;8.822;2024-02-26T08:46:47;31.00;;;20.92;;
6757;SDS011;3416;53.074;8.822;2024-02-26T08:49:15;36.15;;;22.67;;
6757;SDS011;3416;53.074;8.822;2024-02-26T08:51:42;31.75;;;22.73;;
6757;SDS011;3416;53.074;8.822;2024-02-26T08:54:10;35.67;;;25.77;;
6757;SDS011;3416;53.074;8.822;2024-02-26T08:56:38;33.33;;;25.08;;
6757;SDS011;3416;53.074;8.822;2024-02-26T08:59:05;25.10;;;18.88;;
6757;SDS011;3416;53.074;8.822;2024-02-26T09:01:32;29.13;;;20.13;;
6757;SDS011;3416;53.074;8.822;2024-02-26T09:03:59;30.23;;;19.45;;
6757;SDS011;3416;53.074;8.822;2024-02-26T09:06:26;28.30;;;18.90;;
6757;SDS011;3416;53.074;8.822;2024-02-26T09:08:54;30.17;;;21.42;;
6757;SDS011;3416;53.074;8.822;2024-02-26T09:11:21;28.77;;;19.38;;
6757;SDS011;3416;53.074;8.822;2024-02-26T09:13:49;29.45;;;19.77;;
6757;SDS011;3416;53.074;8.822;2024-02-26T09:16:16;34.63;;;23.58;;
6757;SDS011;3416;53.074;8.822;2024-02-26T09:18:44;25.08;;;18.55;;
6757;SDS011;3416;53.074;8.822;2024-02-26T09:21:12;27.55;;;18.67;;
6757;SDS011;3416;53.074;8.822;2024-02-26T09:23:39;26.77;;;18.63;;
6757;SDS011;3416;53.074;8.822;2024-02-26T09:26:06;21.77;;;17.30;;
6757;SDS011;3416;53.074;8.822;2024-02-26T09:28:34;24.45;;;17.30;;
6757;SDS011;3416;53.074;8.822;2024-02-26T09:31:04;26.20;;;18.90;;
6757;SDS011;3416;53.074;8.822;2024-02-26T09:33:31;26.95;;;19.25;;
6757;SDS011;3416;53.074;8.822;2024-02-26T09:35:58;19.83;;;14.57;;
6757;SDS011;3416;53.074;8.822;2024-02-26T09:38:26;22.17;;;15.60;;
6757;SDS011;3416;53.074;8.822;2024-02-26T09:40:54;19.98;;;14.23;;
6757;SDS011;3416;53.074;8.822;2024-02-26T09:43:22;25.98;;;16.52;;
6757;SDS011;3416;53.074;8.822;2024-02-26T09:45:49;20.70;;;14.30;;
6757;SDS011;3416;53.074;8.822;2024-02-26T09:48:19;23.33;;;15.60;;
6757;SDS011;3416;53.074;8.822;2024-02-26T09:50:48;23.58;;;16.40;;
6757;SDS011;3416;53.074;8.822;2024-02-26T09:53:16;21.30;;;14.52;;
6757;SDS011;3416;53.074;8.822;2024-02-26T09:55:44;17.77;;;13.25;;
6757;SDS011;3416;53.074;8.822;2024-02-26T09:58:13;18.20;;;14.10;;
6757;SDS011;3416;53.074;8.822;2024-02-26T10:00:44;17.35;;;13.45;;
6757;SDS011;3416;53.074;8.822;2024-02-26T10:03:19;19.30;;;13.40;;
6757;SDS011;3416;53.074;8.822;2024-02-26T10:05:51;18.58;;;13.98;;
6757;SDS011;3416;53.074;8.822;2024-02-26T10:08:20;15.93;;;12.63;;
6757;SDS011;3416;53.074;8.822;2024-02-26T10:10:48;16.50;;;11.98;;
6757;SDS011;3416;53.074;8.822;2024-02-26T10:13:16;17.52;;;11.93;;
6757;SDS011;3416;53.074;8.822;2024-02-26T10:15:44;16.75;;;11.93;;
6757;SDS011;3416;53.074;8.822;2024-02-26T10:18:13;18.65;;;12.25;;
6757;SDS011;3416;53.074;8.822;2024-02-26T10:20:42;16.48;;;12.30;;
6757;SDS011;3416;53.074;8.822;2024-02-26T10:23:10;15.98;;;11.55;;
6757;SDS011;3416;53.074;8.822;2024-02-26T10:25:37;14.75;;;11.02;;
6757;SDS011;3416;53.074;8.822;2024-02-26T10:28:20;15.18;;;10.68;;
6757;SDS011;3416;53.074;8.822;2024-02-26T10:30:47;15.63;;;10.38;;
6757;SDS011;3416;53.074;8.822;2024-02-26T10:33:14;12.75;;;10.05;;
6757;SDS011;3416;53.074;8.822;2024-02-26T10:35:46;12.90;;;9.38;;
6757;SDS011;3416;53.074;8.822;2024-02-26T10:38:13;13.80;;;11.52;;
6757;SDS011;3416;53.074;8.822;2024-02-26T10:40:45;22.30;;;15.15;;
6757;SDS011;3416;53.074;8.822;2024-02-26T10:43:12;13.23;;;10.23;;
6757;SDS011;3416;53.074;8.822;2024-02-26T10:45:40;10.95;;;9.40;;
6757;SDS011;3416;53.074;8.822;2024-02-26T10:48:09;12.25;;;9.13;;
6757;SDS011;3416;53.074;8.822;2024-02-26T10:50:38;13.23;;;10.63;;
6757;SDS011;3416;53.074;8.822;2024-02-26T10:53:13;11.70;;;9.60;;
6757;SDS011;3416;53.074;8.822;2024-02-26T10:55:45;11.55;;;9.55;;
6757;SDS011;3416;53.074;8.822;2024-02-26T10:58:14;10.48;;;8.68;;
6757;SDS011;3416;53.074;8.822;2024-02-26T11:00:43;15.68;;;11.15;;
6757;SDS011;3416;53.074;8.822;2024-02-26T11:03:12;12.25;;;10.77;;
6757;SDS011;3416;53.074;8.822;2024-02-26T11:05:42;11.48;;;9.82;;
6757;SDS011;3416;53.074;8.822;2024-02-26T11:08:13;9.55;;;8.45;;
6757;SDS011;3416;53.074;8.822;2024-02-26T11:10:40;15.63;;;9.77;;
6757;SDS011;3416;53.074;8.822;2024-02-26T11:13:09;14.35;;;11.15;;
6757;SDS011;3416;53.074;8.822;2024-02-26T11:15:38;11.15;;;9.02;;
6757;SDS011;3416;53.074;8.822;2024-02-26T11:18:07;23.83;;;10.20;;
6757;SDS011;3416;53.074;8.822;2024-02-26T11:20:35;12.70;;;9.57;;
6757;SDS011;3416;53.074;8.822;2024-02-26T11:23:09;14.15;;;9.80;;
6757;SDS011;3416;53.074;8.822;2024-02-26T11:25:37;11.70;;;10.32;;
6757;SDS011;3416;53.074;8.822;2024-02-26T11:28:06;13.20;;;10.68;;
6757;SDS011;3416;53.074;8.822;2024-02-26T11:30:38;13.43;;;11.32;;
6757;SDS011;3416;53.074;8.822;2024-02-26T11:33:08;11.15;;;9.48;;
6757;SDS011;3416;53.074;8.822;2024-02-26T11:35:37;13.35;;;11.20;;
6757;SDS011;3416;53.074;8.822;2024-02-26T11:38:05;13.35;;;11.00;;
6757;SDS011;3416;53.074;8.822;2024-02-26T11:40:33;13.32;;;9.00;;
6757;SDS011;3416;53.074;8.822;2024-02-26T11:43:06;15.52;;;11.23;;
6757;SDS011;3416;53.074;8.822;2024-02-26T11:45:49;13.88;;;10.90;;
6757;SDS011;3416;53.074;8.822;2024-02-26T11:48:21;13.95;;;11.50;;
6757;SDS011;3416;53.074;8.822;2024-02-26T11:50:49;15.52;;;10.85;;
6757;SDS011;3416;53.074;8.822;2024-02-26T11:53:19;15.57;;;12.63;;
6757;SDS011;3416;53.074;8.822;2024-02-26T11:55:48;13.80;;;10.45;;
6757;SDS011;3416;53.074;8.822;2024-02-26T11:58:36;15.18;;;12.45;;
6757;SDS011;3416;53.074;8.822;2024-02-26T12:01:05;13.55;;;11.38;;
6757;SDS011;3416;53.074;8.822;2024-02-26T12:03:53;15.40;;;11.90;;
6757;SDS011;3416;53.074;8.822;2024-02-26T12:06:21;14.98;;;11.57;;
6757;SDS011;3416;53.074;8.822;2024-02-26T12:08:48;12.10;;;9.55;;
6757;SDS011;3416;53.074;8.822;2024-02-26T12:11:16;16.48;;;10.40;;
6757;SDS011;3416;53.074;8.822;2024-02-26T12:13:45;14.00;;;9.75;;
6757;SDS011;3416;53.074;8.822;2024-02-26T12:16:21;15.30;;;11.60;;
6757;SDS011;3416;53.074;8.822;2024-02-26T12:19:02;15.55;;;10.48;;
6757;SDS011;3416;53.074;8.822;2024-02-26T12:21:32;13.98;;;10.48;;
6757;SDS011;3416;53.074;8.822;2024-02-26T12:24:10;13.32;;;10.15;;
6757;SDS011;3416;53.074;8.822;2024-02-26T12:26:38;13.20;;;9.52;;
6757;SDS011;3416;53.074;8.822;2024-02-26T12:29:07;12.65;;;10.10;;
6757;SDS011;3416;53.074;8.822;2024-02-26T12:31:36;11.40;;;9.65;;
6757;SDS011;3416;53.074;8.822;2024-02-26T12:34:04;15.73;;;11.00;;
6757;SDS011;3416;53.074;8.822;2024-02-26T12:36:31;14.70;;;10.60;;
6757;SDS011;3416;53.074;8.822;2024-02-26T12:39:00;14.27;;;9.27;;
6757;SDS011;3416;53.074;8.822;2024-02-26T12:41:30;12.05;;;10.00;;
6757;SDS011;3416;53.074;8.822;2024-02-26T12:43:58;12.30;;;9.05;;
6757;SDS011;3416;53.074;8.822;2024-02-26T12:46:27;12.45;;;10.10;;
6757;SDS011;3416;53.074;8.822;2024-02-26T12:48:55;12.57;;;9.65;;
6757;SDS011;3416;53.074;8.822;2024-02-26T12:51:24;11.02;;;9.50;;
6757;SDS011;3416;53.074;8.822;2024-02-26T12:53:52;11.40;;;9.20;;
6757;SDS011;3416;53.074;8.822;2024-02-26T12:56:20;11.85;;;9.60;;
6757;SDS011;3416;53.074;8.822;2024-02-26T12:58:47;10.13;;;8.75;;
6757;SDS011;3416;53.074;8.822;2024-02-26T13:01:16;10.57;;;8.55;;
6757;SDS011;3416;53.074;8.822;2024-02-26T13:03:48;11.40;;;9.80;;
6757;SDS011;3416;53.074;8.822;2024-02-26T13:06:16;13.70;;;10.02;;
6757;SDS011;3416;53.074;8.822;2024-02-26T13:08:44;11.88;;;9.45;;
6757;SDS011;3416;53.074;8.822;2024-02-26T13:11:12;15.70;;;9.05;;
6757;SDS011;3416;53.074;8.822;2024-02-26T13:13:39;11.40;;;9.25;;
6757;SDS011;3416;53.074;8.822;2024-02-26T13:16:06;12.38;;;9.75;;
6757;SDS011;3416;53.074;8.822;2024-02-26T13:18:42;11.38;;;9.27;;
6757;SDS011;3416;53.074;8.822;2024-02-26T13:21:11;12.15;;;9.75;;
6757;SDS011;3416;53.074;8.822;2024-02-26T13:23:40;11.60;;;9.63;;
6757;SDS011;3416;53.074;8.822;2024-02-26T13:26:09;11.88;;;8.80;;
6757;SDS011;3416;53.074;8.822;2024-02-26T13:28:38;11.32;;;8.52;;
6757;SDS011;3416;53.074;8.822;2024-02-26T13:31:05;11.70;;;9.05;;
6757;SDS011;3416;53.074;8.822;2024-02-26T13:33:33;11.35;;;8.63;;
6757;SDS011;3416;53.074;8.822;2024-02-26T13:36:00;11.52;;;9.70;;
6757;SDS011;3416;53.074;8.822;2024-02-26T13:38:30;12.18;;;8.30;;
6757;SDS011;3416;53.074;8.822;2024-02-26T13:40:57;9.98;;;7.80;;
6757;SDS011;3416;53.074;8.822;2024-02-26T13:43:24;9.88;;;7.25;;
6757;SDS011;3416;53.074;8.822;2024-02-26T13:45:51;10.48;;;7.93;;
6757;SDS011;3416;53.074;8.822;2024-02-26T13:48:18;13.15;;;9.60;;
6757;SDS011;3416;53.074;8.822;2024-02-26T13:50:45;10.70;;;8.55;;
6757;SDS011;3416;53.074;8.822;2024-02-26T13:53:12;14.15;;;9.68;;
6757;SDS011;3416;53.074;8.822;2024-02-26T13:55:41;11.13;;;9.68;;
6757;SDS011;3416;53.074;8.822;2024-02-26T13:58:08;10.13;;;8.73;;
6757;SDS011;3416;53.074;8.822;2024-02-26T14:00:38;13.90;;;10.25;;
6757;SDS011;3416;53.074;8.822;2024-02-26T14:03:06;9.73;;;8.07;;
6757;SDS011;3416;53.074;8.822;2024-02-26T14:05:34;12.77;;;9.23;;
6757;SDS011;3416;53.074;8.822;2024-02-26T14:08:01;10.20;;;8.60;;
6757;SDS011;3416;53.074;8.822;2024-02-26T14:10:28;10.73;;;9.57;;
6757;SDS011;3416;53.074;8.822;2024-02-26T14:12:58;11.88;;;9.07;;
6757;SDS011;3416;53.074;8.822;2024-02-26T14:15:25;13.07;;;9.25;;
6757;SDS011;3416;53.074;8.822;2024-02-26T14:17:54;11.90;;;10.70;;
6757;SDS011;3416;53.074;8.822;2024-02-26T14:20:22;9.65;;;8.48;;
6757;SDS011;3416;53.074;8.822;2024-02-26T14:22:50;11.93;;;9.60;;
6757;SDS011;3416;53.074;8.822;2024-02-26T14:25:18;10.45;;;9.20;;
6757;SDS011;3416;53.074;8.822;2024-02-26T14:27:46;8.63;;;7.70;;
6757;SDS011;3416;53.074;8.822;2024-02-26T14:30:14;10.45;;;8.60;;
6757;SDS011;3416;53.074;8.822;2024-02-26T14:32:41;9.88;;;8.85;;
6757;SDS011;3416;53.074;8.822;2024-02-26T14:35:09;10.95;;;8.80;;
6757;SDS011;3416;53.074;8.822;2024-02-26T14:37:36;10.90;;;9.23;;
6757;SDS011;3416;53.074;8.822;2024-02-26T14:40:04;11.15;;;9.35;;
6757;SDS011;3416;53.074;8.822;2024-02-26T14:42:33;11.95;;;10.40;;
6757;SDS011;3416;53.074;8.822;2024-02-26T14:45:00;11.32;;;9.60;;
6757;SDS011;3416;53.074;8.822;2024-02-26T14:47:32;11.57;;;9.95;;
6757;SDS011;3416;53.074;8.822;2024-02-26T14:49:59;10.77;;;9.30;;
6757;SDS011;3416;53.074;8.822;2024-02-26T14:52:26;10.95;;;9.20;;
6757;SDS011;3416;53.074;8.822;2024-02-26T14:54:53;12.85;;;10.27;;
6757;SDS011;3416;53.074;8.822;2024-02-26T14:57:20;11.95;;;10.10;;